sensor_id;sensor_type;location;lat;lon;timestamp;pressure;altitude;pressure_sealevel;temperature;humidity
12803;BME280;6465;42.700;23.278;2024-02-26T00:02:07;94540.97;;;7.68;99.47
12803;BME280;6465;42.700;23.278;2024-02-26T00:04:35;94548.63;;;7.71;99.89
12803;BME280;6465;42.700;23.278;2024-02-26T00:07:02;94540.97;;;7.68;98.40
12803;BME280;6465;42.700;23.278;2024-02-26T00:09:29;94539.41;;;7.64;97.57
12803;BME280;6465;42.700;23.278;2024-02-26T00:11:56;94542.91;;;7.63;97.50
12803;BME280;6465;42.700;23.278;2024-02-26T00:14:25;94536.00;;;7.62;98.10
12803;BME280;6465;42.700;23.278;2024-02-26T00:16:52;94528.31;;;7.60;98.68
12803;BME280;6465;42.700;23.278;2024-02-26T00:19:19;94534.44;;;7.59;98.86
12803;BME280;6465;42.700;23.278;2024-02-26T00:21:47;94537.09;;;7.57;99.18
12803;BME280;6465;42.700;23.278;2024-02-26T00:24:14;94530.69;;;7.65;99.30
12803;BME280;6465;42.700;23.278;2024-02-26T00:26:42;94534.91;;;7.67;99.85
12803;BME280;6465;42.700;23.278;2024-02-26T00:29:09;94529.16;;;7.61;99.44
12803;BME280;6465;42.700;23.278;2024-02-26T00:31:36;94527.28;;;7.63;99.90
12803;BME280;6465;42.700;23.278;2024-02-26T00:34:03;94529.75;;;7.66;100.00
12803;BME280;6465;42.700;23.278;2024-02-26T00:36:30;94520.94;;;7.68;99.99
12803;BME280;6465;42.700;23.278;2024-02-26T00:38:59;94523.78;;;7.64;100.00
12803;BME280;6465;42.700;23.278;2024-02-26T00:41:26;94516.88;;;7.63;99.98
12803;BME280;6465;42.700;23.278;2024-02-26T00:43:53;94513.50;;;7.61;100.00
12803;BME280;6465;42.700;23.278;2024-02-26T00:46:20;94508.63;;;7.72;100.00
12803;BME280;6465;42.700;23.278;2024-02-26T00:48:47;94508.31;;;7.78;100.00
12803;BME280;6465;42.700;23.278;2024-02-26T00:51:14;94505.47;;;7.82;100.00
12803;BME280;6465;42.700;23.278;2024-02-26T00:53:41;94507.09;;;7.85;100.00
12803;BME280;6465;42.700;23.278;2024-02-26T00:56:10;94507.03;;;7.86;100.00
12803;BME280;6465;42.700;23.278;2024-02-26T00:58:37;94500.13;;;7.85;100.00
12803;BME280;6465;42.700;23.278;2024-02-26T01:01:04;94501.66;;;7.89;99.77
12803;BME280;6465;42.700;23.278;2024-02-26T01:03:31;94499.03;;;7.89;100.00
12803;BME280;6465;42.700;23.278;2024-02-26T01:05:58;94497.59;;;7.84;100.00
12803;BME280;6465;42.700;23.278;2024-02-26T01:08:25;94493.09;;;7.87;100.00
12803;BME280;6465;42.700;23.278;2024-02-26T01:10:52;94491.75;;;7.96;100.00
12803;BME280;6465;42.700;23.278;2024-02-26T01:13:20;94492.53;;;7.98;100.00
12803;BME280;6465;42.700;23.278;2024-02-26T01:15:47;94491.75;;;7.96;100.00
12803;BME280;6465;42.700;23.278;2024-02-26T01:18:14;94488.84;;;8.02;100.00
12803;BME280;6465;42.700;23.278;2024-02-26T01:20:41;94486.88;;;8.07;100.00
12803;BME280;6465;42.700;23.278;2024-02-26T01:23:08;94483.09;;;8.13;100.00
12803;BME280;6465;42.700;23.278;2024-02-26T01:25:35;94487.94;;;8.20;100.00
12803;BME280;6465;42.700;23.278;2024-02-26T01:28:02;94492.06;;;8.24;100.00
12803;BME280;6465;42.700;23.278;2024-02-26T01:30:31;94485.16;;;8.23;100.00
12803;BME280;6465;42.700;23.278;2024-02-26T01:32:58;94488.53;;;8.25;100.00
12803;BME280;6465;42.700;23.278;2024-02-26T01:35:25;94481.50;;;8.27;100.00
12803;BME280;6465;42.700;23.278;2024-02-26T01:37:52;94483.97;;;8.30;100.00
12803;BME280;6465;42.700;23.278;2024-02-26T01:40:19;94479.72;;;8.28;100.00
12803;BME280;6465;42.700;23.278;2024-02-26T01:42:46;94482.25;;;8.29;100.00
12803;BME280;6465;42.700;23.278;2024-02-26T01:45:15;94472.97;;;8.24;100.00
12803;BME280;6465;42.700;23.278;2024-02-26T01:47:49;94475.22;;;8.31;100.00
12803;BME280;6465;42.700;23.278;2024-02-26T01:50:17;94429.59;;;8.06;100.00
12803;BME280;6465;42.700;23.278;2024-02-26T01:52:45;94468.16;;;8.33;100.00
12803;BME280;6465;42.700;23.278;2024-02-26T01:55:12;94472.88;;;8.43;100.00
12803;BME280;6465;42.700;23.278;2024-02-26T01:57:41;94477.56;;;8.53;100.00
12803;BME280;6465;42.700;23.278;2024-02-26T02:00:09;94476.78;;;8.51;100.00
12803;BME280;6465;42.700;23.278;2024-02-26T02:02:37;94474.19;;;8.51;100.00
12803;BME280;6465;42.700;23.278;2024-02-26T02:05:08;94471.91;;;8.45;100.00
12803;BME280;6465;42.700;23.278;2024-02-26T02:07:37;94470.28;;;8.43;100.00
12803;BME280;6465;42.700;23.278;2024-02-26T02:10:05;94469.38;;;8.44;100.00
12803;BME280;6465;42.700;23.278;2024-02-26T02:12:32;94469.59;;;8.39;100.00
12803;BME280;6465;42.700;23.278;2024-02-26T02:15:00;94471.38;;;8.39;100.00
12803;BME280;6465;42.700;23.278;2024-02-26T02:17:27;94473.06;;;8.40;100.00
12803;BME280;6465;42.700;23.278;2024-02-26T02:19:54;94458.47;;;8.35;100.00
12803;BME280;6465;42.700;23.278;2024-02-26T02:22:23;94463.09;;;8.30;100.00
12803;BME280;6465;42.700;23.278;2024-02-26T02:24:52;94461.69;;;8.23;100.00
12803;BME280;6465;42.700;23.278;2024-02-26T02:27:19;94460.69;;;8.26;100.00
12803;BME280;6465;42.700;23.278;2024-02-26T02:29:46;94471.81;;;8.29;100.00
12803;BME280;6465;42.700;23.278;2024-02-26T02:32:14;94465.75;;;8.29;100.00
12803;BME280;6465;42.700;23.278;2024-02-26T02:34:42;94463.25;;;8.27;100.00
12803;BME280;6465;42.700;23.278;2024-02-26T02:37:10;94461.38;;;8.29;100.00
12803;BME280;6465;42.700;23.278;2024-02-26T02:39:38;94456.03;;;8.32;100.00
12803;BME280;6465;42.700;23.278;2024-02-26T02:42:05;94460.41;;;8.32;100.00
12803;BME280;6465;42.700;23.278;2024-02-26T02:44:32;94466.31;;;8.35;100.00
12803;BME280;6465;42.700;23.278;2024-02-26T02:46:59;94470.28;;;8.43;100.00
12803;BME280;6465;42.700;23.278;2024-02-26T02:49:26;94471.13;;;8.43;100.00
12803;BME280;6465;42.700;23.278;2024-02-26T02:51:53;94467.84;;;8.40;100.00
12803;BME280;6465;42.700;23.278;2024-02-26T02:54:20;94475.50;;;8.43;100.00
12803;BME280;6465;42.700;23.278;2024-02-26T02:56:49;94475.44;;;8.44;100.00
12803;BME280;6465;42.700;23.278;2024-02-26T02:59:16;94484.34;;;8.40;100.00
12803;BME280;6465;42.700;23.278;2024-02-26T03:01:43;94483.50;;;8.40;100.00
12803;BME280;6465;42.700;23.278;2024-02-26T03:04:10;94475.50;;;8.43;100.00
12803;BME280;6465;42.700;23.278;2024-02-26T03:06:37;94478.09;;;8.43;100.00
12803;BME280;6465;42.700;23.278;2024-02-26T03:09:04;94473.84;;;8.42;100.00
12803;BME280;6465;42.700;23.278;2024-02-26T03:11:31;94478.94;;;8.43;100.00
12803;BME280;6465;42.700;23.278;2024-02-26T03:13:59;94477.19;;;8.44;100.00
12803;BME280;6465;42.700;23.278;2024-02-26T03:16:27;94474.19;;;8.51;100.00
12803;BME280;6465;42.700;23.278;2024-02-26T03:18:53;94476.78;;;8.51;100.00
12803;BME280;6465;42.700;23.278;2024-02-26T03:21:21;94474.78;;;8.56;100.00
12803;BME280;6465;42.700;23.278;2024-02-26T03:23:48;94474.31;;;8.65;100.00
12803;BME280;6465;42.700;23.278;2024-02-26T03:26:14;94469.69;;;8.70;100.00
12803;BME280;6465;42.700;23.278;2024-02-26T03:28:41;94457.47;;;8.71;100.00
12803;BME280;6465;42.700;23.278;2024-02-26T03:31:10;94458.50;;;8.68;100.00
12803;BME280;6465;42.700;23.278;2024-02-26T03:33:37;94462.56;;;8.74;100.00
12803;BME280;6465;42.700;23.278;2024-02-26T03:36:05;94452.25;;;8.71;100.00
12803;BME280;6465;42.700;23.278;2024-02-26T03:38:33;94451.50;;;8.69;100.00
12803;BME280;6465;42.700;23.278;2024-02-26T03:41:00;94454.28;;;8.66;100.00
12803;BME280;6465;42.700;23.278;2024-02-26T03:43:27;94453.44;;;8.65;100.00
12803;BME280;6465;42.700;23.278;2024-02-26T03:45:53;94462.19;;;8.64;100.00
12803;BME280;6465;42.700;23.278;2024-02-26T03:48:22;94463.28;;;8.60;100.00
12803;BME280;6465;42.700;23.278;2024-02-26T03:50:49;94453.84;;;8.58;100.00
12803;BME280;6465;42.700;23.278;2024-02-26T03:53:16;94446.06;;;8.56;100.00
12803;BME280;6465;42.700;23.278;2024-02-26T03:55:43;94440.97;;;8.55;100.00
12803;BME280;6465;42.700;23.278;2024-02-26T03:58:12;94446.31;;;8.52;100.00
12803;BME280;6465;42.700;23.278;2024-02-26T04:00:39;94445.34;;;8.54;100.00
12803;BME280;6465;42.700;23.278;2024-02-26T04:03:06;94444.38;;;8.55;100.00
12803;BME280;6465;42.700;23.278;2024-02-26T04:05:34;94437.31;;;8.57;100.00
12803;BME280;6465;42.700;23.278;2024-02-26T04:08:01;94442.63;;;8.56;100.00
12803;BME280;6465;42.700;23.278;2024-02-26T04:10:29;94441.78;;;8.55;100.00
12803;BME280;6465;42.700;23.278;2024-02-26T04:12:56;94439.09;;;8.57;100.00
12803;BME280;6465;42.700;23.278;2024-02-26T04:15:23;94438.94;;;8.60;100.00
12803;BME280;6465;42.700;23.278;2024-02-26T04:17:50;94444.94;;;8.62;100.00
12803;BME280;6465;42.700;23.278;2024-02-26T04:20:17;94438.19;;;8.58;100.00
12803;BME280;6465;42.700;23.278;2024-02-26T04:22:46;94426.66;;;8.62;100.00
12803;BME280;6465;42.700;23.278;2024-02-26T04:25:13;94424.22;;;8.59;100.00
12803;BME280;6465;42.700;23.278;2024-02-26T04:27:40;94431.03;;;8.61;100.00
12803;BME280;6465;42.700;23.278;2024-02-26T04:30:08;94439.09;;;8.57;100.00
12803;BME280;6465;42.700;23.278;2024-02-26T04:32:35;94443.31;;;8.59;100.00
12803;BME280;6465;42.700;23.278;2024-02-26T04:35:02;94421.94;;;8.53;100.00
12803;BME280;6465;42.700;23.278;2024-02-26T04:37:29;94438.88;;;8.61;100.00
12803;BME280;6465;42.700;23.278;2024-02-26T04:39:59;94439.53;;;8.65;100.00
12803;BME280;6465;42.700;23.278;2024-02-26T04:42:27;94430.28;;;8.59;100.00
12803;BME280;6465;42.700;23.278;2024-02-26T04:44:54;94405.06;;;8.43;100.00
12803;BME280;6465;42.700;23.278;2024-02-26T04:47:21;94435.25;;;8.64;100.00
12803;BME280;6465;42.700;23.278;2024-02-26T04:49:49;94443.84;;;8.66;100.00
12803;BME280;6465;42.700;23.278;2024-02-26T04:52:16;94449.91;;;8.66;100.00
12803;BME280;6465;42.700;23.278;2024-02-26T04:54:43;94438.63;;;8.66;100.00
12803;BME280;6465;42.700;23.278;2024-02-26T04:57:11;94438.44;;;8.69;100.00
12803;BME280;6465;42.700;23.278;2024-02-26T04:59:38;94452.25;;;8.71;100.00
12803;BME280;6465;42.700;23.278;2024-02-26T05:02:06;94454.94;;;8.69;100.00
12803;BME280;6465;42.700;23.278;2024-02-26T05:04:33;94456.63;;;8.70;100.00
12803;BME280;6465;42.700;23.278;2024-02-26T05:07:00;94449.66;;;8.71;100.00
12803;BME280;6465;42.700;23.278;2024-02-26T05:09:27;94459.16;;;8.72;100.00
12803;BME280;6465;42.700;23.278;2024-02-26T05:11:54;94471.97;;;8.77;100.00
12803;BME280;6465;42.700;23.278;2024-02-26T05:14:22;94465.91;;;8.76;100.00
12803;BME280;6465;42.700;23.278;2024-02-26T05:16:49;94474.50;;;8.78;100.00
12803;BME280;6465;42.700;23.278;2024-02-26T05:19:16;94477.13;;;8.78;100.00
12803;BME280;6465;42.700;23.278;2024-02-26T05:21:43;94478.66;;;8.82;100.00
12803;BME280;6465;42.700;23.278;2024-02-26T05:24:13;94476.97;;;8.81;100.00
12803;BME280;6465;42.700;23.278;2024-02-26T05:26:41;94481.34;;;8.81;100.00
12803;BME280;6465;42.700;23.278;2024-02-26T05:29:08;94493.53;;;8.80;100.00
12803;BME280;6465;42.700;23.278;2024-02-26T05:31:36;94489.84;;;8.84;100.00
12803;BME280;6465;42.700;23.278;2024-02-26T05:34:03;94493.03;;;8.89;100.00
12803;BME280;6465;42.700;23.278;2024-02-26T05:36:30;94496.28;;;8.94;100.00
12803;BME280;6465;42.700;23.278;2024-02-26T05:38:59;94502.34;;;8.95;100.00
12803;BME280;6465;42.700;23.278;2024-02-26T05:41:26;94506.88;;;8.91;100.00
12803;BME280;6465;42.700;23.278;2024-02-26T05:43:53;94507.03;;;8.88;100.00
12803;BME280;6465;42.700;23.278;2024-02-26T05:46:20;94502.50;;;8.92;100.00
12803;BME280;6465;42.700;23.278;2024-02-26T05:48:53;94497.44;;;8.89;100.00
12803;BME280;6465;42.700;23.278;2024-02-26T05:51:20;94504.19;;;8.93;100.00
12803;BME280;6465;42.700;23.278;2024-02-26T05:53:47;94498.03;;;8.94;100.00
12803;BME280;6465;42.700;23.278;2024-02-26T05:56:19;94499.63;;;8.96;100.00
12803;BME280;6465;42.700;23.278;2024-02-26T05:58:47;94495.94;;;9.00;100.00
12803;BME280;6465;42.700;23.278;2024-02-26T06:01:15;94499.47;;;8.99;100.00
12803;BME280;6465;42.700;23.278;2024-02-26T06:03:42;94502.53;;;9.07;100.00
12803;BME280;6465;42.700;23.278;2024-02-26T06:06:11;94508.41;;;9.11;100.00
12803;BME280;6465;42.700;23.278;2024-02-26T06:08:38;94514.16;;;9.18;100.00
12803;BME280;6465;42.700;23.278;2024-02-26T06:11:06;94512.03;;;9.24;100.00
12803;BME280;6465;42.700;23.278;2024-02-26T06:13:33;94521.06;;;9.19;100.00
12803;BME280;6465;42.700;23.278;2024-02-26T06:16:00;94520.72;;;9.25;100.00
12803;BME280;6465;42.700;23.278;2024-02-26T06:18:28;94520.22;;;9.18;100.00
12803;BME280;6465;42.700;23.278;2024-02-26T06:20:55;94519.56;;;9.14;100.00
12803;BME280;6465;42.700;23.278;2024-02-26T06:23:23;94516.16;;;9.12;100.00
12803;BME280;6465;42.700;23.278;2024-02-26T06:25:50;94511.72;;;9.14;100.00
12803;BME280;6465;42.700;23.278;2024-02-26T06:28:17;94516.69;;;9.19;100.00
12803;BME280;6465;42.700;23.278;2024-02-26T06:30:44;94515.34;;;9.28;100.00
12803;BME280;6465;42.700;23.278;2024-02-26T06:33:11;94515.94;;;9.33;100.00
12803;BME280;6465;42.700;23.278;2024-02-26T06:35:39;94517.63;;;9.34;100.00
12803;BME280;6465;42.700;23.278;2024-02-26T06:38:07;94510.13;;;9.28;100.00
12803;BME280;6465;42.700;23.278;2024-02-26T06:40:36;94515.84;;;9.34;100.00
12803;BME280;6465;42.700;23.278;2024-02-26T06:43:03;94529.66;;;9.36;100.00
12803;BME280;6465;42.700;23.278;2024-02-26T06:45:30;94510.63;;;9.34;100.00
12803;BME280;6465;42.700;23.278;2024-02-26T06:47:57;94521.16;;;9.48;100.00
12803;BME280;6465;42.700;23.278;2024-02-26T06:50:24;94518.28;;;9.53;100.00
12803;BME280;6465;42.700;23.278;2024-02-26T06:52:51;94520.75;;;9.56;100.00
12803;BME280;6465;42.700;23.278;2024-02-26T06:55:18;94523.25;;;9.58;100.00
12803;BME280;6465;42.700;23.278;2024-02-26T06:57:47;94530.59;;;9.67;100.00
12803;BME280;6465;42.700;23.278;2024-02-26T07:00:14;94517.44;;;9.68;100.00
12803;BME280;6465;42.700;23.278;2024-02-26T07:02:42;94514.75;;;9.70;100.00
12803;BME280;6465;42.700;23.278;2024-02-26T07:05:09;94522.41;;;9.73;100.00
12803;BME280;6465;42.700;23.278;2024-02-26T07:07:36;94518.38;;;9.83;100.00
12803;BME280;6465;42.700;23.278;2024-02-26T07:10:04;94528.22;;;9.93;100.00
12803;BME280;6465;42.700;23.278;2024-02-26T07:12:31;94525.31;;;9.98;98.74
12803;BME280;6465;42.700;23.278;2024-02-26T07:14:59;94528.28;;;9.92;98.18
12803;BME280;6465;42.700;23.278;2024-02-26T07:17:28;94535.22;;;9.93;97.56
12803;BME280;6465;42.700;23.278;2024-02-26T07:19:55;94540.28;;;9.80;98.67
12803;BME280;6465;42.700;23.278;2024-02-26T07:22:22;94540.09;;;9.83;99.09
12803;BME280;6465;42.700;23.278;2024-02-26T07:24:49;94533.28;;;9.81;98.51
12803;BME280;6465;42.700;23.278;2024-02-26T07:27:17;94540.44;;;9.77;98.76
12803;BME280;6465;42.700;23.278;2024-02-26T07:29:44;94542.91;;;9.80;98.37
12803;BME280;6465;42.700;23.278;2024-02-26T07:32:13;94524.94;;;9.74;98.89
12803;BME280;6465;42.700;23.278;2024-02-26T07:34:41;94537.31;;;9.86;98.98
12803;BME280;6465;42.700;23.278;2024-02-26T07:37:10;94538.09;;;9.88;98.58
12803;BME280;6465;42.700;23.278;2024-02-26T07:39:37;94532.16;;;10.01;97.79
12803;BME280;6465;42.700;23.278;2024-02-26T07:42:04;94541.50;;;10.05;96.84
12803;BME280;6465;42.700;23.278;2024-02-26T07:44:32;94546.56;;;10.08;96.38
12803;BME280;6465;42.700;23.278;2024-02-26T07:46:59;94544.38;;;10.16;95.77
12803;BME280;6465;42.700;23.278;2024-02-26T07:49:27;94543.28;;;10.20;94.80
12803;BME280;6465;42.700;23.278;2024-02-26T07:51:54;94538.81;;;10.22;94.20
12803;BME280;6465;42.700;23.278;2024-02-26T07:54:23;94541.25;;;10.25;93.71
12803;BME280;6465;42.700;23.278;2024-02-26T07:56:50;94545.28;;;10.30;93.54
12803;BME280;6465;42.700;23.278;2024-02-26T07:59:17;94539.03;;;10.33;92.93
12803;BME280;6465;42.700;23.278;2024-02-26T08:01:49;94535.94;;;10.26;92.90
12803;BME280;6465;42.700;23.278;2024-02-26T08:04:16;94536.69;;;10.28;92.73
12803;BME280;6465;42.700;23.278;2024-02-26T08:06:45;94544.63;;;10.27;94.19
12803;BME280;6465;42.700;23.278;2024-02-26T08:09:12;94526.78;;;10.33;93.49
12803;BME280;6465;42.700;23.278;2024-02-26T08:11:39;94530.09;;;10.37;92.44
12803;BME280;6465;42.700;23.278;2024-02-26T08:14:06;94531.75;;;10.38;92.93
12803;BME280;6465;42.700;23.278;2024-02-26T08:16:33;94529.72;;;10.43;91.74
12803;BME280;6465;42.700;23.278;2024-02-26T08:19:00;94526.34;;;10.41;92.38
12803;BME280;6465;42.700;23.278;2024-02-26T08:21:27;94531.22;;;10.47;91.73
12803;BME280;6465;42.700;23.278;2024-02-26T08:23:56;94531.06;;;10.50;91.61
12803;BME280;6465;42.700;23.278;2024-02-26T08:26:22;94532.53;;;10.54;92.40
12803;BME280;6465;42.700;23.278;2024-02-26T08:28:50;94528.28;;;10.67;91.84
12803;BME280;6465;42.700;23.278;2024-02-26T08:31:17;94529.03;;;10.69;90.39
12803;BME280;6465;42.700;23.278;2024-02-26T08:33:44;94527.16;;;10.86;89.69
12803;BME280;6465;42.700;23.278;2024-02-26T08:36:11;94524.91;;;10.94;89.18
12803;BME280;6465;42.700;23.278;2024-02-26T08:38:38;94526.06;;;10.90;88.76
12803;BME280;6465;42.700;23.278;2024-02-26T08:41:07;94521.75;;;10.89;88.51
12803;BME280;6465;42.700;23.278;2024-02-26T08:43:34;94529.41;;;10.92;88.34
12803;BME280;6465;42.700;23.278;2024-02-26T08:46:01;94515.56;;;10.90;88.49
12803;BME280;6465;42.700;23.278;2024-02-26T08:48:28;94529.41;;;11.06;88.68
12803;BME280;6465;42.700;23.278;2024-02-26T08:50:55;94520.63;;;11.21;87.60
12803;BME280;6465;42.700;23.278;2024-02-26T08:53:22;94510.13;;;11.21;87.22
12803;BME280;6465;42.700;23.278;2024-02-26T08:55:49;94523.69;;;11.42;86.47
12803;BME280;6465;42.700;23.278;2024-02-26T08:58:18;94522.16;;;11.52;85.91
12803;BME280;6465;42.700;23.278;2024-02-26T09:00:46;94522.72;;;11.57;85.13
12803;BME280;6465;42.700;23.278;2024-02-26T09:03:13;94520.16;;;11.70;84.22
12803;BME280;6465;42.700;23.278;2024-02-26T09:05:40;94521.69;;;11.74;84.11
12803;BME280;6465;42.700;23.278;2024-02-26T09:08:06;94516.69;;;11.83;83.86
12803;BME280;6465;42.700;23.278;2024-02-26T09:10:34;94512.84;;;11.89;82.89
12803;BME280;6465;42.700;23.278;2024-02-26T09:13:01;94508.78;;;11.98;82.27
12803;BME280;6465;42.700;23.278;2024-02-26T09:15:29;94514.88;;;11.98;82.46
12803;BME280;6465;42.700;23.278;2024-02-26T09:17:56;94512.47;;;12.08;82.55
12803;BME280;6465;42.700;23.278;2024-02-26T09:20:23;94505.44;;;12.08;82.55
12803;BME280;6465;42.700;23.278;2024-02-26T09:22:50;94496.88;;;12.19;82.50
12803;BME280;6465;42.700;23.278;2024-02-26T09:25:18;94500.47;;;12.30;82.20
12803;BME280;6465;42.700;23.278;2024-02-26T09:27:45;94504.91;;;12.43;81.38
12803;BME280;6465;42.700;23.278;2024-02-26T09:30:13;94504.25;;;12.39;82.09
12803;BME280;6465;42.700;23.278;2024-02-26T09:32:41;94497.34;;;12.51;81.97
12803;BME280;6465;42.700;23.278;2024-02-26T09:35:12;94504.31;;;12.64;81.09
12803;BME280;6465;42.700;23.278;2024-02-26T09:37:40;94495.69;;;12.75;81.15
12803;BME280;6465;42.700;23.278;2024-02-26T09:40:09;94499.25;;;12.87;80.33
12803;BME280;6465;42.700;23.278;2024-02-26T09:42:37;94489.78;;;13.09;78.58
12803;BME280;6465;42.700;23.278;2024-02-26T09:45:11;94498.03;;;13.18;77.16
12803;BME280;6465;42.700;23.278;2024-02-26T09:47:40;94487.28;;;13.21;75.11
12803;BME280;6465;42.700;23.278;2024-02-26T09:50:09;94488.94;;;13.34;74.00
12803;BME280;6465;42.700;23.278;2024-02-26T09:52:38;94481.69;;;13.38;74.23
12803;BME280;6465;42.700;23.278;2024-02-26T09:55:08;94480.81;;;13.50;72.66
12803;BME280;6465;42.700;23.278;2024-02-26T09:57:36;94480.47;;;13.55;71.41
12803;BME280;6465;42.700;23.278;2024-02-26T10:00:04;94484.25;;;13.63;71.50
12803;BME280;6465;42.700;23.278;2024-02-26T10:02:36;94472.13;;;13.73;70.89
12803;BME280;6465;42.700;23.278;2024-02-26T10:05:07;94471.69;;;13.79;69.47
12803;BME280;6465;42.700;23.278;2024-02-26T10:07:37;94476.19;;;13.77;69.64
12803;BME280;6465;42.700;23.278;2024-02-26T10:10:04;94475.31;;;13.89;68.40
12803;BME280;6465;42.700;23.278;2024-02-26T10:12:32;94466.25;;;13.94;68.13
12803;BME280;6465;42.700;23.278;2024-02-26T10:14:59;94472.75;;;14.01;67.47
12803;BME280;6465;42.700;23.278;2024-02-26T10:17:26;94456.72;;;14.04;65.68
12803;BME280;6465;42.700;23.278;2024-02-26T10:19:54;94453.41;;;14.13;65.42
12803;BME280;6465;42.700;23.278;2024-02-26T10:22:23;94460.22;;;14.15;65.60
12803;BME280;6465;42.700;23.278;2024-02-26T10:24:50;94457.47;;;14.17;65.38
12803;BME280;6465;42.700;23.278;2024-02-26T10:27:18;94456.25;;;14.10;64.68
12803;BME280;6465;42.700;23.278;2024-02-26T10:29:46;94446.44;;;14.12;64.88
12803;BME280;6465;42.700;23.278;2024-02-26T10:32:13;94448.41;;;14.21;65.54
12803;BME280;6465;42.700;23.278;2024-02-26T10:34:40;94442.31;;;14.20;64.68
12803;BME280;6465;42.700;23.278;2024-02-26T10:37:08;94432.06;;;14.05;64.98
12803;BME280;6465;42.700;23.278;2024-02-26T10:39:37;94431.56;;;14.00;65.32
12803;BME280;6465;42.700;23.278;2024-02-26T10:42:04;94421.91;;;14.11;65.20
12803;BME280;6465;42.700;23.278;2024-02-26T10:44:35;94426.34;;;14.11;64.15
12803;BME280;6465;42.700;23.278;2024-02-26T10:47:02;94435.94;;;14.23;65.06
12803;BME280;6465;42.700;23.278;2024-02-26T10:49:29;94428.91;;;14.35;62.88
12803;BME280;6465;42.700;23.278;2024-02-26T10:51:57;94427.00;;;14.37;62.84
12803;BME280;6465;42.700;23.278;2024-02-26T10:54:26;94426.69;;;14.41;62.02
12803;BME280;6465;42.700;23.278;2024-02-26T10:56:56;94425.72;;;14.42;62.86
12803;BME280;6465;42.700;23.278;2024-02-26T10:59:23;94425.50;;;14.45;63.26
12803;BME280;6465;42.700;23.278;2024-02-26T11:01:50;94415.81;;;14.57;62.63
12803;BME280;6465;42.700;23.278;2024-02-26T11:04:18;94416.31;;;14.62;62.47
12803;BME280;6465;42.700;23.278;2024-02-26T11:06:46;94412.13;;;14.59;62.31
12803;BME280;6465;42.700;23.278;2024-02-26T11:09:14;94416.44;;;14.60;61.43
12803;BME280;6465;42.700;23.278;2024-02-26T11:11:42;94415.88;;;14.68;61.71
12803;BME280;6465;42.700;23.278;2024-02-26T11:14:11;94423.63;;;14.70;61.16
12803;BME280;6465;42.700;23.278;2024-02-26T11:16:39;94407.81;;;14.70;61.20
12803;BME280;6465;42.700;23.278;2024-02-26T11:19:09;94414.78;;;14.59;61.75
12803;BME280;6465;42.700;23.278;2024-02-26T11:21:36;94409.81;;;14.55;61.91
12803;BME280;6465;42.700;23.278;2024-02-26T11:24:08;94416.31;;;14.62;61.82
12803;BME280;6465;42.700;23.278;2024-02-26T11:26:39;94409.97;;;14.64;61.47
12803;BME280;6465;42.700;23.278;2024-02-26T11:29:14;94407.34;;;14.64;61.44
12803;BME280;6465;42.700;23.278;2024-02-26T11:31:43;94409.75;;;14.68;61.86
12803;BME280;6465;42.700;23.278;2024-02-26T11:34:11;94408.91;;;14.67;61.33
12803;BME280;6465;42.700;23.278;2024-02-26T11:36:38;94399.66;;;14.61;61.89
12803;BME280;6465;42.700;23.278;2024-02-26T11:39:08;94402.53;;;14.70;60.87
12803;BME280;6465;42.700;23.278;2024-02-26T11:41:36;94397.16;;;14.71;60.79
12803;BME280;6465;42.700;23.278;2024-02-26T11:44:03;94403.88;;;14.64;60.44
12803;BME280;6465;42.700;23.278;2024-02-26T11:46:39;94396.06;;;14.62;60.52
12803;BME280;6465;42.700;23.278;2024-02-26T11:49:31;94391.91;;;14.71;60.70
12803;BME280;6465;42.700;23.278;2024-02-26T11:51:59;94393.56;;;14.83;60.61
12803;BME280;6465;42.700;23.278;2024-02-26T11:54:39;94382.44;;;14.80;60.40
12803;BME280;6465;42.700;23.278;2024-02-26T11:57:23;94393.69;;;14.82;59.78
12803;BME280;6465;42.700;23.278;2024-02-26T11:59:50;94392.97;;;14.80;59.67
12803;BME280;6465;42.700;23.278;2024-02-26T12:02:42;94390.47;;;14.78;59.37
12803;BME280;6465;42.700;23.278;2024-02-26T12:05:12;94329.94;;;14.43;59.67
12803;BME280;6465;42.700;23.278;2024-02-26T12:07:40;94390.97;;;14.94;58.55
12803;BME280;6465;42.700;23.278;2024-02-26T12:10:19;94391.31;;;15.01;58.88
12803;BME280;6465;42.700;23.278;2024-02-26T12:12:47;94395.84;;;14.99;58.73
12803;BME280;6465;42.700;23.278;2024-02-26T12:15:15;94401.72;;;15.14;58.19
12803;BME280;6465;42.700;23.278;2024-02-26T12:17:49;94393.69;;;15.15;58.01
12803;BME280;6465;42.700;23.278;2024-02-26T12:20:17;94386.47;;;15.17;57.98
12803;BME280;6465;42.700;23.278;2024-02-26T12:22:45;94399.06;;;15.25;58.20
12803;BME280;6465;42.700;23.278;2024-02-26T12:25:13;94397.84;;;15.40;57.36
12803;BME280;6465;42.700;23.278;2024-02-26T12:27:40;94401.22;;;15.42;56.95
12803;BME280;6465;42.700;23.278;2024-02-26T12:30:08;94401.78;;;15.45;56.26
12803;BME280;6465;42.700;23.278;2024-02-26T12:32:35;94398.22;;;15.35;56.23
12803;BME280;6465;42.700;23.278;2024-02-26T12:35:05;94399.75;;;15.38;56.24
12803;BME280;6465;42.700;23.278;2024-02-26T12:37:33;94393.88;;;15.45;56.48
12803;BME280;6465;42.700;23.278;2024-02-26T12:40:03;94404.44;;;15.57;56.19
12803;BME280;6465;42.700;23.278;2024-02-26T12:42:32;94402.41;;;15.60;56.46
12803;BME280;6465;42.700;23.278;2024-02-26T12:45:05;94397.19;;;15.70;55.42
12803;BME280;6465;42.700;23.278;2024-02-26T12:47:36;94393.03;;;15.56;54.64
12803;BME280;6465;42.700;23.278;2024-02-26T12:50:06;94387.06;;;15.54;54.85
12803;BME280;6465;42.700;23.278;2024-02-26T12:52:33;94395.44;;;15.59;55.00
12803;BME280;6465;42.700;23.278;2024-02-26T12:55:02;94396.13;;;15.50;54.76
12803;BME280;6465;42.700;23.278;2024-02-26T12:57:30;94379.72;;;15.58;56.26
12803;BME280;6465;42.700;23.278;2024-02-26T12:59:58;94383.53;;;15.65;55.87
12803;BME280;6465;42.700;23.278;2024-02-26T13:02:26;94390.56;;;15.87;57.34
12803;BME280;6465;42.700;23.278;2024-02-26T13:04:54;94384.94;;;15.80;54.39